Time;durP1;ratioP1;P1;durP2;ratioP2;P2;SDS_P1;SDS_P2;PMS_P1;PMS_P2;Temp;Humidity;BMP_temperature;BMP_pressure;BME280_temperature;BME280_humidity;BME280_pressure;Samples;Min_cycle;Max_cycle;Signal;HPM_P1;HPM_P2
2023/05/21 00:00:07;;;;;;;8.37;7.57;;;13.50;99.90;;;;;;5033432;28;20477;-60
2023/05/21 00:02:34;;;;;;;7.87;7.07;;;13.50;99.90;;;;;;5033486;28;20457;-59
2023/05/21 00:05:01;;;;;;;8.70;7.90;;;13.40;99.90;;;;;;5033118;28;20449;-59
2023/05/21 00:07:28;;;;;;;8.67;7.83;;;13.40;99.90;;;;;;5033290;28;20441;-59
2023/05/21 00:09:56;;;;;;;9.97;7.70;;;13.30;99.90;;;;;;5033285;28;20461;-59
2023/05/21 00:12:23;;;;;;;9.57;7.87;;;13.20;99.90;;;;;;5033010;28;20447;-59
2023/05/21 00:14:49;;;;;;;9.70;8.10;;;13.20;99.90;;;;;;5033089;28;20446;-60
2023/05/21 00:17:16;;;;;;;8.83;7.87;;;13.20;99.90;;;;;;5033017;28;20843;-58
2023/05/21 00:19:43;;;;;;;8.13;6.87;;;13.10;99.90;;;;;;5032697;28;20977;-58
2023/05/21 00:22:10;;;;;;;8.30;7.50;;;13.10;99.90;;;;;;5032509;28;20536;-60
2023/05/21 00:24:37;;;;;;;8.50;7.13;;;13.10;99.90;;;;;;5032892;28;20452;-59
2023/05/21 00:27:05;;;;;;;9.67;8.17;;;13.10;99.90;;;;;;5034599;28;20536;-61
2023/05/21 00:29:32;;;;;;;9.43;7.37;;;13.10;99.90;;;;;;5038387;28;20472;-62
2023/05/21 00:31:58;;;;;;;10.47;7.50;;;13.00;99.90;;;;;;5037626;28;20460;-59
2023/05/21 00:34:26;;;;;;;8.10;7.40;;;13.10;99.90;;;;;;5036958;28;20449;-59
2023/05/21 00:36:54;;;;;;;9.53;8.33;;;13.00;99.90;;;;;;5036921;28;20579;-59
2023/05/21 00:39:21;;;;;;;8.57;7.53;;;13.00;99.90;;;;;;5037046;28;20476;-60
2023/05/21 00:41:48;;;;;;;9.87;8.20;;;12.90;99.90;;;;;;5037173;28;20445;-59
2023/05/21 00:44:17;;;;;;;9.00;8.10;;;12.90;99.90;;;;;;5036723;28;20448;-58
2023/05/21 00:46:47;;;;;;;14.47;8.17;;;12.90;99.90;;;;;;5037060;28;20989;-60
2023/05/21 00:49:14;;;;;;;9.30;8.30;;;12.90;99.90;;;;;;5037616;28;20472;-60
2023/05/21 00:51:43;;;;;;;9.57;7.33;;;12.90;99.90;;;;;;5037415;28;20495;-59
2023/05/21 00:54:10;;;;;;;8.50;7.50;;;12.90;99.90;;;;;;5037058;28;20456;-59
2023/05/21 00:56:37;;;;;;;8.47;7.67;;;12.80;99.90;;;;;;5036747;28;20481;-59
2023/05/21 00:59:04;;;;;;;7.90;7.00;;;12.80;99.90;;;;;;5037312;28;20473;-60
2023/05/21 01:01:35;;;;;;;8.80;7.17;;;12.80;99.90;;;;;;5037184;28;20433;-60
2023/05/21 01:04:02;;;;;;;8.13;7.20;;;12.80;99.90;;;;;;5037214;28;20433;-60
2023/05/21 01:06:33;;;;;;;8.90;8.00;;;12.80;99.90;;;;;;5037064;28;20445;-60
2023/05/21 01:09:02;;;;;;;8.47;7.63;;;12.80;99.90;;;;;;5037904;28;20515;-59
2023/05/21 01:11:37;;;;;;;8.77;7.90;;;12.70;99.90;;;;;;5037051;28;20496;-60
2023/05/21 01:14:08;;;;;;;8.77;7.90;;;12.70;99.90;;;;;;5037094;28;20433;-60
2023/05/21 01:16:37;;;;;;;12.93;8.03;;;12.70;99.90;;;;;;5037253;28;20527;-59
2023/05/21 01:19:05;;;;;;;11.90;7.90;;;12.70;99.90;;;;;;5036180;28;20975;-59
2023/05/21 01:21:36;;;;;;;10.87;8.60;;;12.70;99.90;;;;;;5036695;28;20449;-59
2023/05/21 01:24:06;;;;;;;9.40;7.53;;;12.70;99.90;;;;;;5037272;28;20425;-59
2023/05/21 01:26:37;;;;;;;8.43;7.60;;;12.70;99.90;;;;;;5036648;28;20531;-60
2023/05/21 01:29:04;;;;;;;7.93;7.23;;;12.70;99.90;;;;;;5036245;28;20974;-60
2023/05/21 01:31:35;;;;;;;8.80;8.00;;;12.60;99.90;;;;;;5036684;28;20784;-59
2023/05/21 01:34:06;;;;;;;8.00;7.17;;;12.60;99.90;;;;;;5037169;28;20480;-59
2023/05/21 01:36:39;;;;;;;8.97;7.70;;;12.60;99.90;;;;;;5036828;28;20472;-60
2023/05/21 01:39:13;;;;;;;10.50;7.33;;;12.60;99.90;;;;;;5035845;28;20787;-61
2023/05/21 01:41:44;;;;;;;10.57;8.00;;;12.60;99.90;;;;;;5036797;28;20430;-59
2023/05/21 01:44:12;;;;;;;9.10;7.40;;;12.60;99.90;;;;;;5036661;28;20449;-60
2023/05/21 01:46:40;;;;;;;9.00;7.73;;;12.60;99.90;;;;;;5035980;28;20951;-59
2023/05/21 01:49:08;;;;;;;7.77;6.93;;;12.60;99.90;;;;;;5036316;28;20469;-60
2023/05/21 01:51:35;;;;;;;12.07;7.40;;;12.50;99.90;;;;;;5035909;28;20441;-60
2023/05/21 01:54:03;;;;;;;7.87;7.03;;;12.50;99.90;;;;;;5035905;28;20477;-59
2023/05/21 01:56:32;;;;;;;8.13;7.33;;;12.50;99.90;;;;;;5036629;28;20484;-59
2023/05/21 01:59:00;;;;;;;8.63;7.07;;;12.50;99.90;;;;;;5035577;28;20476;-59
2023/05/21 02:01:28;;;;;;;8.77;7.20;;;12.50;99.90;;;;;;5036154;28;20508;-59
2023/05/21 02:03:55;;;;;;;10.43;7.60;;;12.50;99.90;;;;;;5036048;28;20503;-59
2023/05/21 02:06:22;;;;;;;8.83;7.60;;;12.40;99.90;;;;;;5036245;28;20768;-59
2023/05/21 02:08:49;;;;;;;8.97;8.07;;;12.40;99.90;;;;;;5035944;28;20887;-60
2023/05/21 02:11:16;;;;;;;9.00;7.67;;;12.40;99.90;;;;;;5036135;28;20483;-59
2023/05/21 02:13:44;;;;;;;8.63;7.30;;;12.30;99.90;;;;;;5036047;28;20445;-59
2023/05/21 02:16:13;;;;;;;10.87;7.53;;;12.30;99.90;;;;;;5035468;28;20496;-59
2023/05/21 02:18:41;;;;;;;9.00;8.10;;;12.30;99.90;;;;;;5035552;28;20433;-60
2023/05/21 02:21:07;;;;;;;8.80;7.73;;;12.20;99.90;;;;;;5035586;28;20441;-58
2023/05/21 02:23:34;;;;;;;10.20;7.70;;;12.20;99.90;;;;;;5036195;28;20447;-59
2023/05/21 02:26:01;;;;;;;7.87;7.17;;;12.20;99.90;;;;;;5035199;28;20816;-59
2023/05/21 02:28:29;;;;;;;8.30;7.50;;;12.10;99.90;;;;;;5035145;28;20437;-59
2023/05/21 02:30:57;;;;;;;9.40;7.80;;;12.10;99.90;;;;;;5035196;28;20469;-59
2023/05/21 02:33:24;;;;;;;8.30;7.37;;;12.10;99.90;;;;;;5036097;28;20443;-58
2023/05/21 02:35:51;;;;;;;8.20;7.40;;;12.10;99.90;;;;;;5038107;28;20502;-59
2023/05/21 02:38:21;;;;;;;8.63;7.57;;;12.10;99.90;;;;;;5038904;28;20484;-58
2023/05/21 02:40:49;;;;;;;9.17;6.70;;;12.00;99.90;;;;;;5040288;28;20497;-60
2023/05/21 02:43:16;;;;;;;7.77;6.63;;;12.00;99.90;;;;;;5038910;28;20445;-60
2023/05/21 02:45:43;;;;;;;9.37;7.43;;;12.00;99.90;;;;;;5037835;28;20445;-59
2023/05/21 02:48:11;;;;;;;8.20;7.40;;;12.00;99.90;;;;;;5037465;28;20936;-59
2023/05/21 02:50:38;;;;;;;8.50;7.70;;;12.00;99.90;;;;;;5035757;28;20477;-61
2023/05/21 02:53:05;;;;;;;7.53;6.83;;;12.00;99.90;;;;;;5037451;28;20503;-60
2023/05/21 02:55:31;;;;;;;8.13;6.23;;;12.00;99.90;;;;;;5036151;28;20903;-59
2023/05/21 02:57:58;;;;;;;8.70;7.67;;;11.90;99.90;;;;;;5035548;28;20477;-59
2023/05/21 03:00:25;;;;;;;8.70;7.80;;;11.90;99.90;;;;;;5035017;28;20487;-59
2023/05/21 03:02:52;;;;;;;8.40;7.00;;;11.90;99.90;;;;;;5034890;28;20445;-58
2023/05/21 03:05:20;;;;;;;9.20;7.40;;;11.90;99.90;;;;;;5034781;28;20448;-59
2023/05/21 03:07:47;;;;;;;8.50;7.00;;;11.90;99.90;;;;;;5035112;28;20441;-59
2023/05/21 03:10:13;;;;;;;8.50;7.60;;;11.90;99.90;;;;;;5033965;28;20469;-58
2023/05/21 03:12:40;;;;;;;8.20;7.40;;;11.80;99.90;;;;;;5034298;28;20446;-59
2023/05/21 03:15:08;;;;;;;8.87;6.87;;;11.80;99.90;;;;;;5034879;28;20456;-59
2023/05/21 03:17:34;;;;;;;7.83;7.00;;;11.80;99.90;;;;;;5033884;28;20481;-59
2023/05/21 03:20:03;;;;;;;7.80;7.10;;;11.80;99.90;;;;;;5034280;28;20461;-60
2023/05/21 03:22:32;;;;;;;8.20;7.30;;;11.80;99.90;;;;;;5034142;28;20539;-59
2023/05/21 03:25:00;;;;;;;10.20;6.90;;;11.80;99.90;;;;;;5034334;28;20441;-58
2023/05/21 03:27:27;;;;;;;7.87;7.07;;;11.80;99.90;;;;;;5033550;28;20511;-59
2023/05/21 03:29:54;;;;;;;10.23;7.63;;;11.80;99.90;;;;;;5033221;28;20530;-59
2023/05/21 03:32:21;;;;;;;7.80;7.03;;;11.80;99.90;;;;;;5033819;28;20449;-59
2023/05/21 03:34:48;;;;;;;7.57;6.87;;;11.80;99.90;;;;;;5033312;28;20445;-59
2023/05/21 03:37:15;;;;;;;8.00;7.03;;;11.70;99.90;;;;;;5033418;28;20477;-59
2023/05/21 03:39:43;;;;;;;10.30;6.90;;;11.80;99.90;;;;;;5033932;28;20472;-60
2023/05/21 03:42:09;;;;;;;8.17;6.53;;;11.70;99.90;;;;;;5034632;28;20455;-61
2023/05/21 03:44:36;;;;;;;8.03;7.27;;;11.80;99.90;;;;;;5035683;28;20456;-59
2023/05/21 03:47:03;;;;;;;8.10;6.80;;;11.80;99.90;;;;;;5037413;28;20440;-59
2023/05/21 03:49:30;;;;;;;7.00;6.30;;;11.80;99.90;;;;;;5036440;28;20473;-59
2023/05/21 03:51:56;;;;;;;8.53;5.90;;;11.80;99.90;;;;;;5036380;28;20481;-59
2023/05/21 03:54:23;;;;;;;7.43;6.60;;;11.80;99.90;;;;;;5037102;28;20460;-60
2023/05/21 03:56:51;;;;;;;8.13;6.70;;;11.80;99.90;;;;;;5035390;28;20456;-59
2023/05/21 03:59:18;;;;;;;6.90;6.20;;;11.90;99.90;;;;;;5035751;28;20480;-58
2023/05/21 04:01:45;;;;;;;7.13;6.47;;;11.90;99.90;;;;;;5034273;28;20452;-58
2023/05/21 04:04:12;;;;;;;8.53;6.03;;;12.00;99.90;;;;;;5033973;28;20468;-59
2023/05/21 04:06:41;;;;;;;7.50;6.80;;;12.00;99.90;;;;;;5033320;28;20449;-59
2023/05/21 04:11:46;;;;;;;8.07;7.30;;;12.00;99.90;;;;;;5152362;27;20545;-60
2023/05/21 04:14:13;;;;;;;7.00;6.33;;;12.00;99.90;;;;;;5152404;27;20476;-59
2023/05/21 04:16:42;;;;;;;11.17;7.03;;;12.10;99.90;;;;;;5152080;27;20439;-60
2023/05/21 04:19:09;;;;;;;9.00;5.90;;;12.10;99.90;;;;;;5152128;27;20466;-58
2023/05/21 04:21:36;;;;;;;7.10;6.27;;;12.20;99.90;;;;;;5152407;27;20443;-60
2023/05/21 04:24:03;;;;;;;6.60;5.87;;;12.30;99.90;;;;;;5152611;27;20451;-60
2023/05/21 04:26:32;;;;;;;10.20;6.67;;;12.40;99.90;;;;;;5152227;27;20444;-59
2023/05/21 04:29:02;;;;;;;9.47;6.53;;;12.50;99.90;;;;;;5152143;27;20467;-61
2023/05/21 04:31:29;;;;;;;8.40;6.40;;;12.50;99.90;;;;;;5152041;27;20475;-59
2023/05/21 04:33:56;;;;;;;9.87;6.73;;;12.60;99.90;;;;;;5151976;27;20944;-60
2023/05/21 04:36:24;;;;;;;6.40;5.80;;;12.70;99.90;;;;;;5151897;27;20954;-60
2023/05/21 04:38:50;;;;;;;7.50;6.47;;;12.80;99.90;;;;;;5151680;27;20496;-60
2023/05/21 04:41:20;;;;;;;6.43;5.83;;;12.90;99.90;;;;;;5152512;27;20432;-59
2023/05/21 04:43:46;;;;;;;9.17;6.27;;;12.90;99.90;;;;;;5152442;27;20499;-59
2023/05/21 04:46:15;;;;;;;8.10;6.00;;;13.10;99.90;;;;;;5152526;27;20450;-59
2023/05/21 04:48:41;;;;;;;7.13;6.40;;;13.20;99.90;;;;;;5152309;27;20442;-60
2023/05/21 04:51:08;;;;;;;8.00;6.53;;;13.30;99.90;;;;;;5152006;27;20845;-60
2023/05/21 04:53:35;;;;;;;8.30;5.73;;;13.40;99.90;;;;;;5152190;27;20447;-59
2023/05/21 04:56:02;;;;;;;7.43;6.33;;;13.60;99.90;;;;;;5152175;27;20454;-59
2023/05/21 04:58:31;;;;;;;6.90;6.03;;;13.80;99.90;;;;;;5151956;27;20454;-60
2023/05/21 05:01:01;;;;;;;6.90;6.17;;;14.00;99.90;;;;;;5102152;22;20496;-63
2023/05/21 05:03:30;;;;;;;6.47;5.87;;;14.10;99.90;;;;;;5049957;28;20432;-65
2023/05/21 05:05:56;;;;;;;6.53;5.93;;;14.20;99.90;;;;;;5049572;28;20448;-64
2023/05/21 05:08:23;;;;;;;5.80;5.20;;;14.20;99.90;;;;;;5049407;28;20961;-64
2023/05/21 05:10:50;;;;;;;7.30;5.40;;;14.30;99.90;;;;;;5049279;28;20480;-66
2023/05/21 05:13:17;;;;;;;8.63;6.53;;;14.40;99.90;;;;;;5049692;28;20440;-65
2023/05/21 05:15:44;;;;;;;6.97;6.10;;;14.40;99.90;;;;;;5049537;28;20470;-64
2023/05/21 05:18:11;;;;;;;9.83;6.30;;;14.40;99.90;;;;;;5049468;28;20459;-64
2023/05/21 05:20:46;;;;;;;8.10;5.87;;;14.30;99.90;;;;;;5049957;28;20475;-67
2023/05/21 05:23:13;;;;;;;12.43;7.23;;;14.30;99.90;;;;;;5035538;28;20514;-63
2023/05/21 05:25:40;;;;;;;10.17;6.60;;;14.30;99.90;;;;;;5036365;28;20449;-64
2023/05/21 05:28:07;;;;;;;10.00;7.23;;;14.30;99.90;;;;;;5036142;28;20449;-62
2023/05/21 05:30:34;;;;;;;8.93;7.20;;;14.30;99.90;;;;;;5035856;28;20491;-63
2023/05/21 05:33:01;;;;;;;8.73;6.70;;;14.30;99.90;;;;;;5036168;28;20451;-64
2023/05/21 05:35:28;;;;;;;8.57;7.77;;;14.40;99.90;;;;;;5035975;28;20530;-64
2023/05/21 05:37:56;;;;;;;8.50;6.80;;;14.50;99.90;;;;;;5035600;28;20491;-64
2023/05/21 05:40:23;;;;;;;8.37;7.53;;;14.60;99.90;;;;;;5036020;28;20467;-64
2023/05/21 05:42:51;;;;;;;7.90;7.20;;;14.70;99.90;;;;;;5037285;28;20536;-64
2023/05/21 05:45:18;;;;;;;9.20;7.97;;;14.80;99.90;;;;;;5037744;28;20457;-63
2023/05/21 05:47:45;;;;;;;9.43;8.27;;;14.80;99.90;;;;;;5036264;28;20459;-64
2023/05/21 05:50:12;;;;;;;9.43;6.70;;;14.90;99.90;;;;;;5036508;28;20496;-63
2023/05/21 05:52:39;;;;;;;7.60;6.90;;;15.00;99.90;;;;;;5036643;28;20448;-63
2023/05/21 05:55:08;;;;;;;10.33;8.20;;;15.00;99.90;;;;;;5036321;28;20453;-65
2023/05/21 05:57:35;;;;;;;9.77;7.77;;;15.10;99.90;;;;;;5036517;28;20916;-64
2023/05/21 06:00:03;;;;;;;11.27;8.30;;;15.10;99.90;;;;;;5035439;28;20484;-64
2023/05/21 06:02:29;;;;;;;10.23;9.10;;;15.20;99.90;;;;;;5035181;28;20451;-63
2023/05/21 06:04:57;;;;;;;10.97;8.63;;;15.30;99.90;;;;;;5035450;28;20437;-64
2023/05/21 06:07:24;;;;;;;9.57;8.57;;;15.30;99.90;;;;;;5035137;28;21005;-64
2023/05/21 06:09:50;;;;;;;10.47;8.90;;;15.30;99.90;;;;;;5035394;28;20486;-64
2023/05/21 06:12:19;;;;;;;14.23;8.93;;;15.30;99.90;;;;;;5034987;28;20441;-64
2023/05/21 06:14:47;;;;;;;11.30;8.37;;;15.30;99.90;;;;;;5035727;28;20467;-64
2023/05/21 06:17:15;;;;;;;10.47;8.40;;;15.40;99.90;;;;;;5034838;28;20453;-63
2023/05/21 06:19:41;;;;;;;10.17;9.17;;;15.40;99.90;;;;;;5036176;28;20499;-64
2023/05/21 06:22:08;;;;;;;11.20;8.87;;;15.40;99.90;;;;;;5035354;28;20437;-64
2023/05/21 06:24:35;;;;;;;10.10;9.10;;;15.40;99.90;;;;;;5035639;28;20455;-64
2023/05/21 06:27:02;;;;;;;14.00;9.07;;;15.40;99.90;;;;;;5037105;28;20464;-64
2023/05/21 06:29:31;;;;;;;10.77;9.77;;;15.50;99.90;;;;;;5037477;28;20457;-64
2023/05/21 06:31:57;;;;;;;10.37;8.57;;;15.50;99.90;;;;;;5034798;28;20481;-64
2023/05/21 06:34:25;;;;;;;10.37;8.93;;;15.70;99.90;;;;;;5034836;28;20486;-65
2023/05/21 06:36:51;;;;;;;10.27;9.13;;;15.80;99.90;;;;;;5035723;28;20503;-65
2023/05/21 06:39:18;;;;;;;11.53;9.97;;;15.90;99.90;;;;;;5036620;28;20480;-64
2023/05/21 06:41:45;;;;;;;12.30;9.47;;;16.10;99.90;;;;;;5035636;28;20837;-63
2023/05/21 06:44:12;;;;;;;13.37;10.10;;;16.10;99.90;;;;;;5035561;28;20449;-64
2023/05/21 06:46:41;;;;;;;10.80;9.53;;;16.20;99.90;;;;;;5035219;28;20460;-64
2023/05/21 06:49:07;;;;;;;12.27;10.97;;;16.20;99.90;;;;;;5035271;28;20860;-63
2023/05/21 06:51:34;;;;;;;12.67;11.17;;;16.20;99.90;;;;;;5035525;28;20496;-64
2023/05/21 06:54:01;;;;;;;12.47;10.67;;;16.20;99.90;;;;;;5034995;28;20455;-65
2023/05/21 06:56:28;;;;;;;11.23;10.20;;;16.30;99.90;;;;;;5036720;28;20463;-64
2023/05/21 06:58:55;;;;;;;13.00;10.43;;;16.30;99.90;;;;;;5035932;28;20449;-64
2023/05/21 07:01:23;;;;;;;11.37;10.27;;;16.40;99.90;;;;;;5036107;28;20568;-65
2023/05/21 07:03:51;;;;;;;11.70;10.50;;;16.50;99.90;;;;;;5036042;28;20445;-63
2023/05/21 07:06:18;;;;;;;14.33;10.40;;;16.70;99.90;;;;;;5036036;28;20445;-64
2023/05/21 07:08:46;;;;;;;12.40;11.20;;;17.00;99.90;;;;;;5035288;28;20441;-64
2023/05/21 07:11:13;;;;;;;12.63;11.27;;;17.20;99.90;;;;;;5035983;28;20485;-65
2023/05/21 07:13:40;;;;;;;12.97;10.60;;;17.30;99.90;;;;;;5036142;28;20448;-65
2023/05/21 07:16:07;;;;;;;11.93;10.80;;;17.40;99.90;;;;;;5039128;28;20460;-63
2023/05/21 07:18:34;;;;;;;13.60;11.23;;;17.40;99.90;;;;;;5034690;28;20456;-64
2023/05/21 07:21:02;;;;;;;13.80;12.07;;;17.40;99.90;;;;;;5035180;28;20469;-64
2023/05/21 07:23:29;;;;;;;13.03;11.50;;;17.50;99.90;;;;;;5033442;28;20445;-65
2023/05/21 07:25:56;;;;;;;13.20;11.40;;;17.60;99.90;;;;;;5033813;28;20445;-65
2023/05/21 07:28:23;;;;;;;12.40;11.03;;;17.60;99.90;;;;;;5033604;28;20445;-66
2023/05/21 07:30:49;;;;;;;16.87;12.73;;;17.80;99.90;;;;;;5033456;28;20492;-64
2023/05/21 07:33:19;;;;;;;23.87;13.70;;;17.90;99.90;;;;;;5033588;28;20453;-66
2023/05/21 07:35:46;;;;;;;14.70;13.20;;;18.00;99.90;;;;;;5033667;28;20460;-66
2023/05/21 07:38:14;;;;;;;18.90;13.43;;;18.10;99.90;;;;;;5034967;28;20448;-66
2023/05/21 07:40:40;;;;;;;14.17;12.67;;;18.20;99.90;;;;;;5033381;28;20844;-66
2023/05/21 07:43:07;;;;;;;14.60;12.97;;;18.20;99.90;;;;;;5033521;28;20456;-65
2023/05/21 07:45:34;;;;;;;15.47;13.70;;;18.20;99.90;;;;;;5033894;28;20445;-66
2023/05/21 07:48:01;;;;;;;16.30;12.50;;;18.30;99.90;;;;;;5034588;28;20445;-66
2023/05/21 07:50:28;;;;;;;15.50;13.80;;;18.40;99.90;;;;;;5036051;28;21017;-67
2023/05/21 07:52:54;;;;;;;15.40;13.67;;;18.70;99.50;;;;;;5033769;28;20456;-67
2023/05/21 07:55:23;;;;;;;13.83;12.47;;;18.90;98.40;;;;;;5033895;28;20464;-66
2023/05/21 07:57:51;;;;;;;13.90;12.50;;;19.10;97.70;;;;;;5035680;28;20460;-66
2023/05/21 08:00:18;;;;;;;15.27;13.63;;;19.30;96.90;;;;;;5034389;28;20488;-67
2023/05/21 08:02:45;;;;;;;16.07;14.37;;;19.40;95.80;;;;;;5033830;28;20793;-67
2023/05/21 08:05:11;;;;;;;15.00;13.40;;;19.40;95.30;;;;;;5033548;28;20453;-66
2023/05/21 08:07:38;;;;;;;15.80;14.00;;;19.40;95.20;;;;;;5035015;28;20445;-67
2023/05/21 08:10:07;;;;;;;15.07;13.47;;;19.50;94.80;;;;;;5034080;28;20996;-67
2023/05/21 08:12:35;;;;;;;15.73;13.37;;;19.50;94.40;;;;;;5033581;28;20939;-66
2023/05/21 08:15:02;;;;;;;16.37;14.57;;;19.70;94.20;;;;;;5036467;28;20449;-67
2023/05/21 08:17:29;;;;;;;15.33;13.70;;;19.70;93.30;;;;;;5034540;28;20955;-67
2023/05/21 08:19:56;;;;;;;14.20;12.73;;;19.80;92.90;;;;;;5033953;28;20839;-66
2023/05/21 08:22:23;;;;;;;15.80;14.20;;;19.80;92.70;;;;;;5036229;28;20805;-67
2023/05/21 08:24:49;;;;;;;18.03;14.40;;;19.90;92.60;;;;;;5036542;28;20974;-68
2023/05/21 08:27:16;;;;;;;15.50;13.70;;;19.90;92.20;;;;;;5034672;28;20607;-66
2023/05/21 08:29:44;;;;;;;16.73;14.43;;;20.00;91.90;;;;;;5036318;28;20467;-66
2023/05/21 08:32:11;;;;;;;16.70;14.90;;;20.00;91.70;;;;;;5035476;28;20480;-66
2023/05/21 08:34:38;;;;;;;19.53;16.70;;;20.10;92.00;;;;;;5034887;28;20448;-66
2023/05/21 08:37:05;;;;;;;19.50;15.23;;;20.30;91.40;;;;;;5034549;28;20453;-66
2023/05/21 08:39:32;;;;;;;17.87;15.57;;;20.60;90.40;;;;;;5035128;28;20545;-67
2023/05/21 08:42:15;;;;;;;16.23;14.63;;;20.90;88.20;;;;;;5036621;28;20449;-67
2023/05/21 08:44:49;;;;;;;17.03;15.07;;;21.10;86.30;;;;;;5036018;28;20912;-65
2023/05/21 08:47:18;;;;;;;17.20;14.97;;;21.30;84.10;;;;;;5034091;28;20439;-65
2023/05/21 08:49:47;;;;;;;17.00;15.30;;;21.40;82.70;;;;;;5033406;28;20452;-66
2023/05/21 08:52:16;;;;;;;18.03;16.20;;;21.30;81.80;;;;;;5033204;28;20489;-66
2023/05/21 08:54:45;;;;;;;18.70;15.97;;;21.30;81.90;;;;;;5033032;28;20448;-66
2023/05/21 08:57:13;;;;;;;19.87;17.73;;;21.30;81.20;;;;;;5034830;28;20450;-66
2023/05/21 08:59:43;;;;;;;19.07;16.47;;;21.50;80.80;;;;;;5037534;28;20524;-67
2023/05/21 09:02:12;;;;;;;17.57;15.77;;;21.60;79.50;;;;;;5038754;28;20428;-67
2023/05/21 09:04:40;;;;;;;16.57;14.87;;;21.70;78.80;;;;;;5041415;28;20969;-65
2023/05/21 09:07:07;;;;;;;19.07;16.77;;;21.70;78.80;;;;;;5042829;28;20456;-67
2023/05/21 09:09:39;;;;;;;18.20;16.30;;;21.70;77.60;;;;;;5039533;28;20975;-68
2023/05/21 09:12:06;;;;;;;17.40;15.70;;;21.70;77.70;;;;;;5038550;28;20472;-66
2023/05/21 09:14:34;;;;;;;17.57;14.57;;;21.90;77.10;;;;;;5036604;28;20448;-67
2023/05/21 09:17:01;;;;;;;17.00;15.37;;;22.10;76.60;;;;;;5038986;28;20965;-68
2023/05/21 09:19:30;;;;;;;19.57;16.00;;;22.30;75.40;;;;;;5036370;28;20459;-67
2023/05/21 09:22:02;;;;;;;18.20;16.23;;;22.40;74.40;;;;;;5035950;28;20452;-67
2023/05/21 09:24:31;;;;;;;17.13;15.40;;;22.60;73.40;;;;;;5037177;28;20436;-66
2023/05/21 09:26:58;;;;;;;19.50;17.20;;;22.70;72.60;;;;;;5037438;28;20488;-68
2023/05/21 09:29:29;;;;;;;18.00;16.10;;;22.80;71.70;;;;;;5038248;28;20506;-67
2023/05/21 09:31:56;;;;;;;18.80;17.00;;;22.80;71.10;;;;;;5037332;28;20465;-67
2023/05/21 09:34:25;;;;;;;16.37;14.77;;;22.70;71.60;;;;;;5037849;28;20452;-67
2023/05/21 09:36:56;;;;;;;17.77;15.97;;;22.80;71.00;;;;;;5037727;28;20447;-68
2023/05/21 09:39:29;;;;;;;19.57;16.43;;;22.90;70.50;;;;;;5037776;28;20430;-66
2023/05/21 09:41:57;;;;;;;19.67;17.70;;;22.90;69.90;;;;;;5036198;28;20441;-66
2023/05/21 09:44:24;;;;;;;18.13;16.37;;;22.90;69.70;;;;;;5036691;28;20448;-66
2023/05/21 09:46:51;;;;;;;18.43;16.07;;;23.00;69.20;;;;;;5038663;28;20455;-67
2023/05/21 09:49:25;;;;;;;21.13;16.90;;;23.00;68.90;;;;;;5038483;28;20457;-68
2023/05/21 09:51:56;;;;;;;17.33;15.53;;;23.10;68.70;;;;;;5037623;28;20481;-67
2023/05/21 09:54:24;;;;;;;16.50;14.73;;;23.20;68.40;;;;;;5038251;28;20434;-67
2023/05/21 09:56:52;;;;;;;19.07;17.10;;;23.30;68.00;;;;;;5036990;28;20454;-67
2023/05/21 09:59:19;;;;;;;17.00;15.30;;;23.30;67.40;;;;;;5035482;28;20454;-67
2023/05/21 10:01:46;;;;;;;17.40;15.63;;;23.40;67.10;;;;;;5036368;28;20504;-68
2023/05/21 10:04:31;;;;;;;23.37;16.90;;;23.50;66.70;;;;;;5037088;28;20455;-68
2023/05/21 10:07:01;;;;;;;18.00;16.30;;;23.60;66.50;;;;;;5039964;28;20440;-65
2023/05/21 10:09:29;;;;;;;17.40;15.37;;;23.80;65.90;;;;;;5037271;28;20450;-65
2023/05/21 10:11:58;;;;;;;16.63;15.03;;;24.10;64.80;;;;;;5036972;28;20498;-64
2023/05/21 10:14:27;;;;;;;18.87;16.90;;;24.20;63.70;;;;;;5037115;28;20456;-66
2023/05/21 10:16:55;;;;;;;16.83;15.13;;;24.20;63.00;;;;;;5037838;28;20478;-67
2023/05/21 10:19:23;;;;;;;18.07;16.17;;;24.20;62.60;;;;;;5036797;28;20439;-66
2023/05/21 10:21:52;;;;;;;18.00;16.07;;;24.20;62.50;;;;;;5035171;28;20559;-65
2023/05/21 10:24:20;;;;;;;18.10;16.30;;;24.40;62.40;;;;;;5035012;28;20474;-67
2023/05/21 10:26:48;;;;;;;17.90;16.10;;;24.50;61.80;;;;;;5034953;28;20446;-65
2023/05/21 10:29:16;;;;;;;18.77;16.77;;;24.70;61.30;;;;;;5035577;28;20448;-64
2023/05/21 10:31:45;;;;;;;18.20;16.50;;;24.90;60.80;;;;;;5034879;28;20495;-64
2023/05/21 10:34:13;;;;;;;16.80;15.00;;;25.10;60.20;;;;;;5035116;28;20449;-66
2023/05/21 10:36:40;;;;;;;17.20;15.47;;;25.20;59.60;;;;;;5035093;28;20452;-67
2023/05/21 10:39:09;;;;;;;16.63;15.00;;;25.20;59.10;;;;;;5034347;28;20944;-65
2023/05/21 10:41:46;;;;;;;16.70;14.20;;;25.20;58.40;;;;;;5034918;28;20473;-66
2023/05/21 10:44:23;;;;;;;15.67;14.13;;;25.10;58.20;;;;;;5035798;28;20433;-66
2023/05/21 10:47:23;;;;;;;15.53;14.03;;;25.10;58.20;;;;;;5035435;28;20784;-66
2023/05/21 10:50:18;;;;;;;16.57;14.77;;;25.20;58.00;;;;;;5034561;28;20465;-66
2023/05/21 10:53:01;;;;;;;16.13;14.63;;;25.20;57.70;;;;;;5034243;28;20469;-65
2023/05/21 10:55:42;;;;;;;16.77;15.07;;;25.10;57.70;;;;;;5034762;28;20437;-66
2023/05/21 10:58:58;;;;;;;16.17;14.57;;;25.10;57.90;;;;;;5034299;28;20436;-66
2023/05/21 11:01:28;;;;;;;15.53;14.10;;;25.00;57.80;;;;;;5049900;22;20504;-61
2023/05/21 11:03:55;;;;;;;15.60;13.93;;;25.00;57.70;;;;;;5035112;28;20440;-60
2023/05/21 11:06:24;;;;;;;14.43;12.97;;;25.10;57.60;;;;;;5035422;28;20443;-62
2023/05/21 11:08:52;;;;;;;15.70;13.93;;;25.30;57.50;;;;;;5035212;28;20447;-61
2023/05/21 11:11:42;;;;;;;14.47;12.97;;;25.50;57.30;;;;;;5035666;28;20584;-62
2023/05/21 11:14:35;;;;;;;16.23;14.53;;;25.60;56.70;;;;;;5035644;28;20427;-61
2023/05/21 11:17:02;;;;;;;14.83;13.43;;;25.80;56.30;;;;;;5035470;28;20873;-59
2023/05/21 11:19:38;;;;;;;15.20;13.70;;;26.00;55.70;;;;;;5034863;28;20449;-61
2023/05/21 11:22:10;;;;;;;14.77;13.27;;;25.90;55.50;;;;;;5035026;28;20459;-60
2023/05/21 11:24:41;;;;;;;14.30;12.93;;;25.90;55.40;;;;;;5034544;28;20451;-60
2023/05/21 11:27:08;;;;;;;15.00;13.70;;;25.90;55.20;;;;;;5035128;28;20454;-61
2023/05/21 11:29:43;;;;;;;14.30;12.90;;;26.00;54.90;;;;;;5034684;28;20539;-60
2023/05/21 11:32:11;;;;;;;14.70;13.33;;;26.00;54.60;;;;;;5035409;28;20482;-62
2023/05/21 11:34:40;;;;;;;14.33;12.97;;;25.90;54.70;;;;;;5036119;28;20448;-59
2023/05/21 11:37:34;;;;;;;13.13;11.90;;;26.00;54.20;;;;;;5036060;28;20483;-61
2023/05/21 11:40:22;;;;;;;14.27;12.97;;;26.00;53.90;;;;;;4999877;28;20958;-59
2023/05/21 11:42:51;;;;;;;13.50;12.20;;;26.00;54.10;;;;;;5035351;28;20494;-62
2023/05/21 11:45:20;;;;;;;14.07;12.60;;;26.10;53.80;;;;;;5034501;28;20437;-63
2023/05/21 11:47:48;;;;;;;15.57;12.60;;;26.30;53.50;;;;;;5035313;28;20447;-62
2023/05/21 11:50:15;;;;;;;15.53;13.93;;;26.40;53.20;;;;;;5035585;28;20453;-60
2023/05/21 11:52:43;;;;;;;14.50;13.13;;;26.50;53.10;;;;;;5034623;28;20504;-60
2023/05/21 11:55:11;;;;;;;14.23;12.93;;;26.70;52.70;;;;;;5034474;28;20974;-62
2023/05/21 11:57:41;;;;;;;14.33;12.97;;;27.00;52.30;;;;;;5034951;28;20466;-60
2023/05/21 12:00:14;;;;;;;13.23;11.93;;;27.30;52.00;;;;;;5034239;28;20477;-61
2023/05/21 12:02:46;;;;;;;15.03;12.60;;;27.60;51.30;;;;;;5035013;28;20520;-61
2023/05/21 12:05:13;;;;;;;13.07;11.70;;;27.80;50.80;;;;;;5035605;28;20430;-63
2023/05/21 12:07:41;;;;;;;13.57;12.30;;;28.10;50.40;;;;;;5035923;28;20452;-61
2023/05/21 12:10:08;;;;;;;13.27;12.07;;;28.20;50.10;;;;;;5035486;28;20464;-61
2023/05/21 12:12:35;;;;;;;12.77;11.60;;;28.40;49.60;;;;;;5035117;28;20566;-61
2023/05/21 12:15:03;;;;;;;13.20;11.90;;;28.60;48.40;;;;;;5033366;28;20451;-60
2023/05/21 12:17:31;;;;;;;12.57;11.50;;;28.70;48.10;;;;;;5034953;28;20444;-60
2023/05/21 12:20:00;;;;;;;13.50;12.30;;;29.00;47.90;;;;;;5034759;28;20445;-61
2023/05/21 12:22:28;;;;;;;14.00;12.80;;;29.30;47.30;;;;;;5035016;28;20449;-63
2023/05/21 12:24:57;;;;;;;12.87;11.77;;;29.40;46.80;;;;;;5034911;28;20479;-61
2023/05/21 12:27:24;;;;;;;13.17;11.90;;;29.10;47.00;;;;;;5035036;28;20452;-62
2023/05/21 12:29:51;;;;;;;12.50;11.40;;;28.80;47.60;;;;;;5034962;28;20804;-62
2023/05/21 12:32:20;;;;;;;13.23;12.07;;;28.50;48.10;;;;;;5036917;28;20484;-61
2023/05/21 12:34:48;;;;;;;13.90;12.30;;;28.20;47.90;;;;;;5039333;28;20829;-61
2023/05/21 12:37:20;;;;;;;14.70;12.40;;;28.00;48.60;;;;;;5039337;28;20455;-62
2023/05/21 12:39:48;;;;;;;14.97;12.50;;;27.70;49.40;;;;;;5039061;28;20447;-64
2023/05/21 12:42:16;;;;;;;15.43;13.93;;;27.50;49.80;;;;;;5039620;28;20443;-60
2023/05/21 12:44:44;;;;;;;13.47;12.27;;;27.30;50.00;;;;;;5039869;28;20542;-61